Time;durP1;ratioP1;P1;durP2;ratioP2;P2;SDS_P1;SDS_P2;PMS_P1;PMS_P2;Temp;Humidity;BMP_temperature;BMP_pressure;BME280_temperature;BME280_humidity;BME280_pressure;Samples;Min_cycle;Max_cycle;Signal;HPM_P1;HPM_P2
2024/01/14 00:00:44;;;;;;;1999.90;999.90;;;;;;;;;;5054831;28;20128;-82
2024/01/14 00:03:10;;;;;;;1999.90;999.90;;;;;;;;;;5056732;28;20488;-85
2024/01/14 00:05:37;;;;;;;1999.90;999.90;;;;;;;;;;5074328;28;20057;-82
2024/01/14 00:08:04;;;;;;;1999.90;999.90;;;;;;;;;;5066008;28;20488;-81
2024/01/14 00:10:31;;;;;;;1999.90;999.90;;;;;;;;;;5074132;28;20064;-82
2024/01/14 00:12:57;;;;;;;1999.90;999.90;;;;;;;;;;5074133;28;20052;-83
2024/01/14 00:15:25;;;;;;;1999.90;999.90;;;;;;;;;;5073762;28;20131;-82
2024/01/14 00:17:52;;;;;;;1999.90;999.90;;;;;;;;;;5074038;28;20135;-82
2024/01/14 00:20:19;;;;;;;1999.90;999.90;;;;;;;;;;5073838;28;20063;-82
2024/01/14 00:22:45;;;;;;;1999.90;999.90;;;;;;;;;;5074132;28;20056;-84
2024/01/14 00:25:12;;;;;;;1999.90;999.90;;;;;;;;;;5073486;28;20048;-82
2024/01/14 00:27:39;;;;;;;1999.90;999.90;;;;;;;;;;5073835;28;20424;-82
2024/01/14 00:30:07;;;;;;;1999.90;999.90;;;;;;;;;;5074033;28;20052;-82
2024/01/14 00:32:34;;;;;;;1999.90;999.90;;;;;;;;;;5073205;28;20049;-82
2024/01/14 00:35:01;;;;;;;1999.90;999.90;;;;;;;;;;5073708;28;20049;-82
2024/01/14 00:37:28;;;;;;;1999.90;999.90;;;;;;;;;;5073038;28;20556;-83
2024/01/14 00:39:55;;;;;;;1999.90;999.90;;;;;;;;;;5073380;28;20048;-83
2024/01/14 00:42:21;;;;;;;1999.90;999.90;;;;;;;;;;5073210;28;20462;-82
2024/01/14 00:44:48;;;;;;;1999.90;999.90;;;;;;;;;;5073046;28;20202;-81
2024/01/14 00:47:14;;;;;;;1999.90;999.90;;;;;;;;;;5087130;28;20040;-82
2024/01/14 00:49:42;;;;;;;1999.90;999.90;;;;;;;;;;5083555;28;20064;-83
2024/01/14 00:52:09;;;;;;;1999.90;999.90;;;;;;;;;;5078148;28;20401;-85
2024/01/14 00:54:35;;;;;;;1999.90;999.90;;;;;;;;;;5076948;28;20492;-85
2024/01/14 00:57:03;;;;;;;1999.90;999.90;;;;;;;;;;5075349;28;20050;-83
2024/01/14 00:59:30;;;;;;;1999.90;999.90;;;;;;;;;;5072177;28;20076;-83
2024/01/14 01:01:56;;;;;;;1999.90;999.90;;;;;;;;;;5072679;28;20047;-84
2024/01/14 01:04:23;;;;;;;1999.90;999.90;;;;;;;;;;5075599;28;20060;-84
2024/01/14 01:06:51;;;;;;;1999.90;999.90;;;;;;;;;;5081386;28;20507;-86
2024/01/14 01:09:17;;;;;;;1999.90;999.90;;;;;;;;;;5077431;28;20403;-84
2024/01/14 01:11:44;;;;;;;1999.90;999.90;;;;;;;;;;5073286;28;20127;-83
2024/01/14 01:14:10;;;;;;;1999.90;999.90;;;;;;;;;;5075491;28;20054;-84
2024/01/14 01:16:37;;;;;;;1999.90;999.90;;;;;;;;;;5073515;28;20142;-88
2024/01/14 01:19:37;;;;;;;1999.90;999.90;;;;;;;;;;5063073;28;20048;-84
2024/01/14 01:22:06;;;;;;;1999.90;999.90;;;;;;;;;;5061001;28;20068;-86
2024/01/14 01:24:33;;;;;;;1999.90;999.90;;;;;;;;;;5080733;28;20151;-87
2024/01/14 01:26:59;;;;;;;1999.90;999.90;;;;;;;;;;5072504;28;20055;-84
2024/01/14 01:29:26;;;;;;;1999.90;999.90;;;;;;;;;;5086247;28;20569;-85
2024/01/14 01:31:52;;;;;;;1999.90;999.90;;;;;;;;;;5080318;28;20055;-84
2024/01/14 01:34:19;;;;;;;1999.90;999.90;;;;;;;;;;5075637;28;20043;-84
2024/01/14 01:36:45;;;;;;;1999.90;999.90;;;;;;;;;;5072725;28;20777;-84
2024/01/14 01:39:14;;;;;;;1999.90;999.90;;;;;;;;;;5075927;28;20055;-85
2024/01/14 01:41:40;;;;;;;1999.90;999.90;;;;;;;;;;5067149;28;20056;-84
2024/01/14 01:44:07;;;;;;;1999.90;999.90;;;;;;;;;;5075515;28;20052;-84
2024/01/14 01:46:33;;;;;;;1999.90;999.90;;;;;;;;;;5060285;28;20045;-85
2024/01/14 01:49:00;;;;;;;1999.90;999.90;;;;;;;;;;5080492;28;20052;-85
2024/01/14 01:51:27;;;;;;;1999.90;999.90;;;;;;;;;;5071492;28;20074;-85
2024/01/14 01:53:54;;;;;;;1999.90;999.90;;;;;;;;;;5073229;28;20040;-85
2024/01/14 01:56:22;;;;;;;1999.90;999.90;;;;;;;;;;5070629;28;20049;-84
2024/01/14 01:58:49;;;;;;;1999.90;999.90;;;;;;;;;;5078661;28;20052;-84
2024/01/14 02:01:16;;;;;;;1999.90;999.90;;;;;;;;;;5081969;28;20040;-86
2024/01/14 02:03:43;;;;;;;1999.90;999.90;;;;;;;;;;5066801;28;20052;-86
2024/01/14 02:06:10;;;;;;;1999.90;999.90;;;;;;;;;;5078351;28;20395;-84
2024/01/14 02:08:37;;;;;;;1999.90;999.90;;;;;;;;;;5083262;28;20048;-86
2024/01/14 02:11:04;;;;;;;1999.90;999.90;;;;;;;;;;5070350;28;20127;-83
2024/01/14 02:13:32;;;;;;;1999.90;999.90;;;;;;;;;;5073138;28;20567;-87
2024/01/14 02:15:58;;;;;;;1999.90;999.90;;;;;;;;;;5076616;28;20477;-86
2024/01/14 02:18:25;;;;;;;1999.90;999.90;;;;;;;;;;5072338;28;20051;-84
2024/01/14 02:20:52;;;;;;;1999.90;999.90;;;;;;;;;;5076782;28;20056;-84
2024/01/14 02:23:21;;;;;;;1999.90;999.90;;;;;;;;;;5074601;28;20049;-84
2024/01/14 02:25:49;;;;;;;1999.90;999.90;;;;;;;;;;5074864;28;20508;-81
2024/01/14 02:28:16;;;;;;;1999.90;999.90;;;;;;;;;;5075354;28;20048;-84
2024/01/14 02:30:43;;;;;;;1999.90;999.90;;;;;;;;;;5079548;28;20048;-83
2024/01/14 02:33:11;;;;;;;1999.90;999.90;;;;;;;;;;5079217;28;20048;-83
2024/01/14 02:35:39;;;;;;;1999.90;999.90;;;;;;;;;;5083993;28;20040;-84
2024/01/14 02:38:06;;;;;;;1999.90;999.90;;;;;;;;;;5075269;28;20044;-84
2024/01/14 02:40:33;;;;;;;1999.90;999.90;;;;;;;;;;5075887;28;20054;-84
2024/01/14 02:43:01;;;;;;;1999.90;999.90;;;;;;;;;;5072605;28;20153;-84
2024/01/14 02:45:30;;;;;;;1999.90;999.90;;;;;;;;;;5074419;28;20044;-84
2024/01/14 02:47:57;;;;;;;1999.90;999.90;;;;;;;;;;5068600;28;20144;-84
2024/01/14 02:50:23;;;;;;;1999.90;999.90;;;;;;;;;;5087856;28;20130;-83
2024/01/14 02:52:50;;;;;;;1999.90;999.90;;;;;;;;;;5087107;28;20056;-83
2024/01/14 02:55:16;;;;;;;1999.90;999.90;;;;;;;;;;5077871;28;20412;-84
2024/01/14 02:57:43;;;;;;;1999.90;999.90;;;;;;;;;;5073991;28;20126;-84
2024/01/14 03:00:12;;;;;;;1999.90;999.90;;;;;;;;;;5076143;28;20041;-85
2024/01/14 03:02:39;;;;;;;1999.90;999.90;;;;;;;;;;5072615;28;20118;-84
2024/01/14 03:05:07;;;;;;;1999.90;999.90;;;;;;;;;;5061833;28;20147;-84
2024/01/14 03:07:33;;;;;;;1999.90;999.90;;;;;;;;;;5060101;28;20493;-85
2024/01/14 03:10:00;;;;;;;1999.90;999.90;;;;;;;;;;5053646;28;20051;-85
2024/01/14 03:12:26;;;;;;;1999.90;999.90;;;;;;;;;;5057353;28;20059;-85
2024/01/14 03:14:53;;;;;;;1999.90;999.90;;;;;;;;;;5059357;28;20512;-84
2024/01/14 03:17:21;;;;;;;1999.90;999.90;;;;;;;;;;5064129;28;20507;-84
2024/01/14 03:19:53;;;;;;;1999.90;999.90;;;;;;;;;;5059859;28;20036;-84
2024/01/14 03:22:19;;;;;;;1999.90;999.90;;;;;;;;;;5053237;28;20059;-85
2024/01/14 03:24:46;;;;;;;1999.90;999.90;;;;;;;;;;5056268;28;20048;-84
2024/01/14 03:27:13;;;;;;;1999.90;999.90;;;;;;;;;;5059005;28;20059;-84
2024/01/14 03:29:39;;;;;;;1999.90;999.90;;;;;;;;;;5053434;28;20056;-85
2024/01/14 03:32:06;;;;;;;1999.90;999.90;;;;;;;;;;5050277;28;20053;-87
2024/01/14 03:34:33;;;;;;;1999.90;999.90;;;;;;;;;;5049255;28;20052;-84
2024/01/14 03:37:00;;;;;;;1999.90;999.90;;;;;;;;;;5056884;28;20059;-84
2024/01/14 03:39:26;;;;;;;1999.90;999.90;;;;;;;;;;5058711;28;20049;-86
2024/01/14 03:41:53;;;;;;;1999.90;999.90;;;;;;;;;;5050814;28;20408;-85
2024/01/14 03:44:20;;;;;;;1999.90;999.90;;;;;;;;;;5053882;28;20041;-84
2024/01/14 03:46:46;;;;;;;1999.90;999.90;;;;;;;;;;5051801;28;20049;-84
2024/01/14 03:49:31;;;;;;;1999.90;999.90;;;;;;;;;;5054983;28;20557;-86
2024/01/14 03:51:59;;;;;;;1999.90;999.90;;;;;;;;;;5058640;28;20056;-84
2024/01/14 03:54:26;;;;;;;1999.90;999.90;;;;;;;;;;5053482;28;20144;-85
2024/01/14 03:56:52;;;;;;;1999.90;999.90;;;;;;;;;;5053421;28;20055;-87
2024/01/14 03:59:19;;;;;;;1999.90;999.90;;;;;;;;;;5061398;28;20055;-84
2024/01/14 04:01:46;;;;;;;1999.90;999.90;;;;;;;;;;5054482;28;20095;-84
2024/01/14 04:04:12;;;;;;;1999.90;999.90;;;;;;;;;;5054868;28;20059;-86
2024/01/14 04:06:39;;;;;;;1999.90;999.90;;;;;;;;;;5076689;28;20055;-84
2024/01/14 04:09:07;;;;;;;1999.90;999.90;;;;;;;;;;5081101;28;20123;-86
2024/01/14 04:11:33;;;;;;;1999.90;999.90;;;;;;;;;;5075687;28;20048;-84
2024/01/14 04:14:00;;;;;;;1999.90;999.90;;;;;;;;;;5067106;28;20511;-84
2024/01/14 04:16:26;;;;;;;1999.90;999.90;;;;;;;;;;5069137;28;20055;-87
2024/01/14 04:18:53;;;;;;;1999.90;999.90;;;;;;;;;;5073518;28;20048;-84
2024/01/14 04:21:35;;;;;;;1999.90;999.90;;;;;;;;;;5075104;28;20050;-84
2024/01/14 04:24:02;;;;;;;1999.90;999.90;;;;;;;;;;5064514;28;20049;-84
2024/01/14 04:26:30;;;;;;;1999.90;999.90;;;;;;;;;;5086534;28;20079;-85
2024/01/14 04:28:58;;;;;;;1999.90;999.90;;;;;;;;;;5076856;28;20055;-84
2024/01/14 04:31:24;;;;;;;1999.90;999.90;;;;;;;;;;5070476;28;20041;-83
2024/01/14 04:33:51;;;;;;;1999.90;999.90;;;;;;;;;;5062807;28;20144;-84
2024/01/14 04:36:17;;;;;;;1999.90;999.90;;;;;;;;;;5081328;28;20373;-85
2024/01/14 04:38:44;;;;;;;1999.90;999.90;;;;;;;;;;5090929;28;20044;-84
2024/01/14 04:41:11;;;;;;;1999.90;999.90;;;;;;;;;;5084889;28;20044;-87
2024/01/14 04:43:39;;;;;;;1999.90;999.90;;;;;;;;;;5084995;28;20040;-84
2024/01/14 04:46:07;;;;;;;1999.90;999.90;;;;;;;;;;5071711;28;20044;-85
2024/01/14 04:48:34;;;;;;;1999.90;999.90;;;;;;;;;;5077889;28;20529;-84
2024/01/14 04:51:00;;;;;;;1999.90;999.90;;;;;;;;;;5057513;28;20052;-90
2024/01/14 04:53:27;;;;;;;1999.90;999.90;;;;;;;;;;5079296;28;20048;-86
2024/01/14 04:55:54;;;;;;;1999.90;999.90;;;;;;;;;;5077846;28;20053;-84
2024/01/14 04:58:21;;;;;;;1999.90;999.90;;;;;;;;;;5072692;28;20055;-84
2024/01/14 05:00:48;;;;;;;1999.90;999.90;;;;;;;;;;5075512;28;20401;-85
2024/01/14 05:03:15;;;;;;;1999.90;999.90;;;;;;;;;;5071349;28;20064;-84
2024/01/14 05:05:41;;;;;;;1999.90;999.90;;;;;;;;;;5071870;28;20139;-85
2024/01/14 05:08:08;;;;;;;1999.90;999.90;;;;;;;;;;5072808;28;20059;-84
2024/01/14 05:10:35;;;;;;;1999.90;999.90;;;;;;;;;;5071918;28;20053;-84
2024/01/14 05:13:01;;;;;;;1999.90;999.90;;;;;;;;;;5075709;28;20083;-85
2024/01/14 05:15:28;;;;;;;1999.90;999.90;;;;;;;;;;5075005;28;20048;-84
2024/01/14 05:17:56;;;;;;;1999.90;999.90;;;;;;;;;;5081305;28;20055;-83
2024/01/14 05:20:27;;;;;;;1999.90;999.90;;;;;;;;;;5077947;28;20044;-85
2024/01/14 05:22:54;;;;;;;1999.90;999.90;;;;;;;;;;5073998;28;20040;-84
2024/01/14 05:25:21;;;;;;;1999.90;999.90;;;;;;;;;;5067897;28;20049;-84
2024/01/14 05:27:47;;;;;;;1999.90;999.90;;;;;;;;;;5075688;28;20047;-85
2024/01/14 05:30:14;;;;;;;1999.90;999.90;;;;;;;;;;5075163;28;20045;-85
2024/01/14 05:32:41;;;;;;;1999.90;999.90;;;;;;;;;;5074354;28;20063;-85
2024/01/14 05:35:09;;;;;;;1999.90;999.90;;;;;;;;;;5076816;28;20059;-82
2024/01/14 05:37:36;;;;;;;1999.90;999.90;;;;;;;;;;5074059;28;20044;-84
2024/01/14 05:40:04;;;;;;;1999.90;999.90;;;;;;;;;;5074655;28;20056;-84
2024/01/14 05:42:31;;;;;;;1999.90;999.90;;;;;;;;;;5068196;28;20499;-85
2024/01/14 05:44:57;;;;;;;1999.90;999.90;;;;;;;;;;5076710;28;20052;-84
2024/01/14 05:47:24;;;;;;;1999.90;999.90;;;;;;;;;;5076825;28;20085;-85
2024/01/14 05:49:50;;;;;;;1999.90;999.90;;;;;;;;;;5077291;28;20045;-84
2024/01/14 05:52:18;;;;;;;1999.90;999.90;;;;;;;;;;5070507;28;20140;-85
2024/01/14 05:54:45;;;;;;;1999.90;999.90;;;;;;;;;;5080808;28;20044;-89
2024/01/14 05:57:11;;;;;;;1999.90;999.90;;;;;;;;;;5082987;28;20048;-89
2024/01/14 05:59:38;;;;;;;1999.90;999.90;;;;;;;;;;5076087;28;20050;-85
2024/01/14 06:02:04;;;;;;;1999.90;999.90;;;;;;;;;;5080489;28;20051;-85
2024/01/14 06:04:31;;;;;;;1999.90;999.90;;;;;;;;;;5066788;28;20049;-86
2024/01/14 06:06:57;;;;;;;1999.90;999.90;;;;;;;;;;5080692;28;20066;-85
2024/01/14 06:09:25;;;;;;;1999.90;999.90;;;;;;;;;;5075583;28;20132;-85
2024/01/14 06:11:52;;;;;;;1999.90;999.90;;;;;;;;;;5081073;28;20044;-85
2024/01/14 06:14:19;;;;;;;1999.90;999.90;;;;;;;;;;5067105;28;20041;-84
2024/01/14 06:16:46;;;;;;;1999.90;999.90;;;;;;;;;;5072720;28;20051;-85
2024/01/14 06:19:12;;;;;;;1999.90;999.90;;;;;;;;;;5079648;28;20040;-86
2024/01/14 06:21:41;;;;;;;1999.90;999.90;;;;;;;;;;5066071;28;20059;-87
2024/01/14 06:24:07;;;;;;;1999.90;999.90;;;;;;;;;;5068167;28;20051;-90
2024/01/14 06:26:35;;;;;;;1999.90;999.90;;;;;;;;;;5071689;28;20052;-86
2024/01/14 06:29:03;;;;;;;1999.90;999.90;;;;;;;;;;5078475;28;20135;-85
2024/01/14 06:31:29;;;;;;;1999.90;999.90;;;;;;;;;;5071837;28;20296;-84
2024/01/14 06:33:56;;;;;;;1999.90;999.90;;;;;;;;;;5080914;28;20699;-85
2024/01/14 06:36:22;;;;;;;1999.90;999.90;;;;;;;;;;5071488;28;20044;-84
2024/01/14 06:38:49;;;;;;;1999.90;999.90;;;;;;;;;;5082195;28;20051;-84
2024/01/14 06:41:19;;;;;;;1999.90;999.90;;;;;;;;;;5069760;28;20496;-87
2024/01/14 06:43:47;;;;;;;1999.90;999.90;;;;;;;;;;5076210;28;20042;-84
2024/01/14 06:46:13;;;;;;;1999.90;999.90;;;;;;;;;;5079517;28;20048;-84
2024/01/14 06:48:40;;;;;;;1999.90;999.90;;;;;;;;;;5069606;28;20057;-86
2024/01/14 06:51:06;;;;;;;1999.90;999.90;;;;;;;;;;5082405;28;20040;-85
2024/01/14 06:53:33;;;;;;;1999.90;999.90;;;;;;;;;;5079369;28;20147;-88
2024/01/14 06:55:59;;;;;;;1999.90;999.90;;;;;;;;;;5076212;28;20127;-85
2024/01/14 06:58:26;;;;;;;1999.90;999.90;;;;;;;;;;5074292;28;20059;-91
2024/01/14 07:00:54;;;;;;;1999.90;999.90;;;;;;;;;;5076215;28;20052;-88
2024/01/14 07:03:20;;;;;;;1999.90;999.90;;;;;;;;;;5083922;28;20052;-84
2024/01/14 07:05:47;;;;;;;1999.90;999.90;;;;;;;;;;5082869;28;20420;-85
2024/01/14 07:08:13;;;;;;;1999.90;999.90;;;;;;;;;;5074373;28;20049;-85
2024/01/14 07:10:40;;;;;;;1999.90;999.90;;;;;;;;;;5069659;28;20056;-84
2024/01/14 07:13:06;;;;;;;1999.90;999.90;;;;;;;;;;5082354;28;20386;-89
2024/01/14 07:15:33;;;;;;;1999.90;999.90;;;;;;;;;;5088317;28;20044;-87
2024/01/14 07:18:02;;;;;;;1999.90;999.90;;;;;;;;;;5071153;28;20048;-86
2024/01/14 07:20:28;;;;;;;1999.90;999.90;;;;;;;;;;5078879;28;20050;-85
2024/01/14 07:22:55;;;;;;;1999.90;999.90;;;;;;;;;;5076474;28;20052;-85
2024/01/14 07:25:22;;;;;;;1999.90;999.90;;;;;;;;;;5087657;28;20044;-87
2024/01/14 07:27:49;;;;;;;1999.90;999.90;;;;;;;;;;5074789;28;20048;-86
2024/01/14 07:30:18;;;;;;;1999.90;999.90;;;;;;;;;;5074296;28;20048;-85
2024/01/14 07:32:45;;;;;;;1999.90;999.90;;;;;;;;;;5072789;28;20059;-85
2024/01/14 07:35:13;;;;;;;1999.90;999.90;;;;;;;;;;5079952;28;20132;-84
2024/01/14 07:37:40;;;;;;;1999.90;999.90;;;;;;;;;;5076207;28;20047;-89
2024/01/14 07:40:07;;;;;;;1999.90;999.90;;;;;;;;;;5071781;28;20044;-85
2024/01/14 07:42:34;;;;;;;1999.90;999.90;;;;;;;;;;5076258;28;20054;-87
2024/01/14 07:45:02;;;;;;;1999.90;999.90;;;;;;;;;;5078463;28;20062;-85
2024/01/14 07:47:29;;;;;;;1999.90;999.90;;;;;;;;;;5078559;28;20048;-84
2024/01/14 07:50:02;;;;;;;1999.90;999.90;;;;;;;;;;5071500;28;20067;-87
2024/01/14 07:52:30;;;;;;;1999.90;999.90;;;;;;;;;;5075257;28;20519;-85
2024/01/14 07:54:56;;;;;;;1999.90;999.90;;;;;;;;;;5076453;28;20059;-86
2024/01/14 07:57:23;;;;;;;1999.90;999.90;;;;;;;;;;5080309;28;20059;-85
2024/01/14 07:59:49;;;;;;;1999.90;999.90;;;;;;;;;;5070969;28;20455;-85
2024/01/14 08:02:16;;;;;;;1999.90;999.90;;;;;;;;;;5073093;28;20517;-85
2024/01/14 08:04:44;;;;;;;1999.90;999.90;;;;;;;;;;5075155;28;20063;-87
2024/01/14 08:07:11;;;;;;;1999.90;999.90;;;;;;;;;;5076819;28;20059;-84
2024/01/14 08:09:39;;;;;;;1999.90;999.90;;;;;;;;;;5074229;28;20048;-86
2024/01/14 08:12:06;;;;;;;1999.90;999.90;;;;;;;;;;5076723;28;20055;-85
2024/01/14 08:14:33;;;;;;;1999.90;999.90;;;;;;;;;;5050710;28;20049;-85
2024/01/14 08:16:59;;;;;;;1999.90;999.90;;;;;;;;;;5078475;28;20054;-85
2024/01/14 08:19:29;;;;;;;1999.90;999.90;;;;;;;;;;5079855;28;20054;-85
2024/01/14 08:21:55;;;;;;;1999.90;999.90;;;;;;;;;;5075306;28;20048;-86
2024/01/14 08:24:22;;;;;;;1999.90;999.90;;;;;;;;;;5074134;28;20049;-85
2024/01/14 08:26:50;;;;;;;1999.90;999.90;;;;;;;;;;5070672;28;20127;-86
2024/01/14 08:29:17;;;;;;;1999.90;999.90;;;;;;;;;;5082802;28;20044;-85
2024/01/14 08:31:43;;;;;;;1999.90;999.90;;;;;;;;;;5081255;28;20041;-85
2024/01/14 08:34:10;;;;;;;1999.90;999.90;;;;;;;;;;5071627;28;20515;-85
2024/01/14 08:36:37;;;;;;;1999.90;999.90;;;;;;;;;;5073012;28;20048;-86
2024/01/14 08:39:03;;;;;;;1999.90;999.90;;;;;;;;;;5072348;28;20572;-86
2024/01/14 08:41:31;;;;;;;1999.90;999.90;;;;;;;;;;5070804;28;20152;-83
2024/01/14 08:43:59;;;;;;;1999.90;999.90;;;;;;;;;;5078262;28;20048;-83
2024/01/14 08:46:26;;;;;;;1999.90;999.90;;;;;;;;;;5070931;28;20525;-88
2024/01/14 08:48:52;;;;;;;1999.90;999.90;;;;;;;;;;5074213;28;20050;-83
2024/01/14 08:51:19;;;;;;;1999.90;999.90;;;;;;;;;;5081568;28;20051;-83
2024/01/14 08:53:46;;;;;;;1999.90;999.90;;;;;;;;;;5066580;28;20049;-86
2024/01/14 08:56:13;;;;;;;1999.90;999.90;;;;;;;;;;5077040;28;20080;-85
2024/01/14 08:58:41;;;;;;;1999.90;999.90;;;;;;;;;;5074212;28;20060;-83
2024/01/14 09:01:09;;;;;;;1999.90;999.90;;;;;;;;;;5073971;28;20048;-89
2024/01/14 09:03:35;;;;;;;1999.90;999.90;;;;;;;;;;5060530;28;20426;-84
2024/01/14 09:06:02;;;;;;;1999.90;999.90;;;;;;;;;;5053633;28;20041;-84
2024/01/14 09:08:28;;;;;;;1999.90;999.90;;;;;;;;;;5053460;28;20045;-85
2024/01/14 09:10:55;;;;;;;1999.90;999.90;;;;;;;;;;5053467;28;20136;-85
2024/01/14 09:13:21;;;;;;;1999.90;999.90;;;;;;;;;;5053340;28;20045;-84
2024/01/14 09:15:48;;;;;;;1999.90;999.90;;;;;;;;;;5057094;28;20123;-85
2024/01/14 09:18:16;;;;;;;1999.90;999.90;;;;;;;;;;5069700;28;20080;-85
2024/01/14 09:20:55;;;;;;;1999.90;999.90;;;;;;;;;;5074204;28;20045;-85
2024/01/14 09:23:21;;;;;;;1999.90;999.90;;;;;;;;;;5074220;28;20048;-85
2024/01/14 09:25:48;;;;;;;1999.90;999.90;;;;;;;;;;5056786;28;20083;-85
2024/01/14 09:28:15;;;;;;;1999.90;999.90;;;;;;;;;;5054058;28;20052;-85
2024/01/14 09:30:41;;;;;;;1999.90;999.90;;;;;;;;;;5053905;28;20059;-85
2024/01/14 09:33:08;;;;;;;1999.90;999.90;;;;;;;;;;5054099;28;20048;-85
2024/01/14 09:35:36;;;;;;;1999.90;999.90;;;;;;;;;;5054118;28;20132;-85
2024/01/14 09:38:03;;;;;;;1999.90;999.90;;;;;;;;;;5054164;28;20059;-85
2024/01/14 09:40:30;;;;;;;1999.90;999.90;;;;;;;;;;5053502;28;20494;-85
2024/01/14 09:42:59;;;;;;;1999.90;999.90;;;;;;;;;;5058032;28;20045;-85
2024/01/14 09:45:26;;;;;;;1999.90;999.90;;;;;;;;;;5058230;28;20132;-85
2024/01/14 09:47:52;;;;;;;1999.90;999.90;;;;;;;;;;5058141;28;20053;-83
2024/01/14 09:53:42;;;;;;;1999.90;999.90;;;;;;;;;;5066316;28;20048;-84
2024/01/14 09:56:13;;;;;;;1999.90;999.90;;;;;;;;;;5067977;28;20060;-84
2024/01/14 10:01:40;;;;;;;1999.90;999.90;;;;;;;;;;4979746;28;20511;-85
2024/01/14 10:04:08;;;;;;;1999.90;999.90;;;;;;;;;;4988005;28;20054;-85
2024/01/14 10:06:36;;;;;;;1999.90;999.90;;;;;;;;;;5074924;28;20392;-85
2024/01/14 10:09:09;;;;;;;1999.90;999.90;;;;;;;;;;5077829;28;20131;-85
2024/01/14 10:11:36;;;;;;;1999.90;999.90;;;;;;;;;;5078674;28;20052;-86
2024/01/14 10:14:03;;;;;;;1999.90;999.90;;;;;;;;;;5078267;28;20045;-86
2024/01/14 10:20:20;;;;;;;1999.90;999.90;;;;;;;;;;5077329;28;20037;-86
2024/01/14 10:22:46;;;;;;;1999.90;999.90;;;;;;;;;;5079538;28;20044;-88
2024/01/14 10:25:15;;;;;;;1999.90;999.90;;;;;;;;;;5079147;28;20045;-88
2024/01/14 10:27:43;;;;;;;1999.90;999.90;;;;;;;;;;5082915;28;20056;-89
2024/01/14 10:30:11;;;;;;;1999.90;999.90;;;;;;;;;;5088808;28;20147;-87
2024/01/14 10:32:38;;;;;;;1999.90;999.90;;;;;;;;;;5082507;28;20106;-88
2024/01/14 10:35:10;;;;;;;1999.90;999.90;;;;;;;;;;5080133;28;20059;-89
2024/01/14 10:37:37;;;;;;;1999.90;999.90;;;;;;;;;;5083187;28;20478;-90
2024/01/14 10:40:10;;;;;;;1999.90;999.90;;;;;;;;;;5088443;28;20555;-88
2024/01/14 10:42:38;;;;;;;1999.90;999.90;;;;;;;;;;5080742;28;20537;-89
2024/01/14 10:45:06;;;;;;;1999.90;999.90;;;;;;;;;;5079503;28;20048;-89
2024/01/14 10:47:34;;;;;;;1999.90;999.90;;;;;;;;;;5085805;28;20485;-91
2024/01/14 10:50:13;;;;;;;1999.90;999.90;;;;;;;;;;5083311;28;20135;-89
2024/01/14 10:52:44;;;;;;;1999.90;999.90;;;;;;;;;;5083683;28;20476;-90
2024/01/14 10:55:16;;;;;;;1999.90;999.90;;;;;;;;;;5085627;28;20123;-88
2024/01/14 10:57:45;;;;;;;1999.90;999.90;;;;;;;;;;5061182;28;20481;-91
2024/01/14 11:00:14;;;;;;;1999.90;999.90;;;;;;;;;;5079147;28;20040;-88
2024/01/14 11:02:41;;;;;;;1999.90;999.90;;;;;;;;;;5082315;28;20044;-89
2024/01/14 11:05:09;;;;;;;1999.90;999.90;;;;;;;;;;5064507;28;20136;-91
2024/01/14 11:07:36;;;;;;;1999.90;999.90;;;;;;;;;;5057091;28;20591;-89
2024/01/14 11:10:05;;;;;;;1999.90;999.90;;;;;;;;;;5063963;28;20041;-89
2024/01/14 11:12:36;;;;;;;1999.90;999.90;;;;;;;;;;5028607;28;20053;-90
2024/01/14 11:15:06;;;;;;;1999.90;999.90;;;;;;;;;;5059454;28;20049;-89
2024/01/14 11:17:42;;;;;;;1999.90;999.90;;;;;;;;;;5053642;28;20053;-92
2024/01/14 11:20:10;;;;;;;;;;;;;;;;;;5061062;28;20094;-89
2024/01/14 11:22:36;;;;;;;1999.90;999.90;;;;;;;;;;5056597;28;19927;-90
2024/01/14 11:25:03;;;;;;;1999.90;999.90;;;;;;;;;;5065196;28;20537;-91
2024/01/14 11:27:30;;;;;;;1999.90;999.90;;;;;;;;;;5052669;28;20114;-90
2024/01/14 11:29:58;;;;;;;1999.90;999.90;;;;;;;;;;5045511;28;20052;-90
2024/01/14 11:32:26;;;;;;;1999.90;999.90;;;;;;;;;;5055461;28;20060;-91
2024/01/14 11:34:54;;;;;;;1999.90;999.90;;;;;;;;;;5062941;28;20051;-90
2024/01/14 11:37:43;;;;;;;1999.90;999.90;;;;;;;;;;5050431;28;20077;-89
2024/01/14 11:40:25;;;;;;;1999.90;999.90;;;;;;;;;;5065719;28;20053;-89
2024/01/14 11:42:56;;;;;;;1999.90;999.90;;;;;;;;;;5064379;28;20052;-89
2024/01/14 11:45:36;;;;;;;1999.90;999.90;;;;;;;;;;5064906;28;20080;-89
2024/01/14 11:48:05;;;;;;;1999.90;999.90;;;;;;;;;;5052567;28;20045;-89
2024/01/14 11:50:32;;;;;;;1999.90;999.90;;;;;;;;;;5068356;28;20412;-89
2024/01/14 11:53:00;;;;;;;1999.90;999.90;;;;;;;;;;5062205;28;20501;-90
2024/01/14 11:55:29;;;;;;;1999.90;999.90;;;;;;;;;;5041044;28;20087;-88
2024/01/14 11:57:55;;;;;;;1999.90;999.90;;;;;;;;;;5064514;28;20074;-89
2024/01/14 12:00:25;;;;;;;1999.90;999.90;;;;;;;;;;5059752;28;20052;-89
2024/01/14 12:03:05;;;;;;;1999.90;999.90;;;;;;;;;;5057212;28;20055;-87
2024/01/14 12:05:32;;;;;;;1999.90;999.90;;;;;;;;;;5077466;28;20081;-89
2024/01/14 12:08:00;;;;;;;1999.90;999.90;;;;;;;;;;5058485;28;20075;-89
2024/01/14 12:10:28;;;;;;;1999.90;999.90;;;;;;;;;;5083277;28;20102;-89
2024/01/14 12:12:55;;;;;;;1999.90;999.90;;;;;;;;;;5074417;28;20045;-90
2024/01/14 12:15:21;;;;;;;1999.90;999.90;;;;;;;;;;5063573;28;20053;-91
2024/01/14 12:17:58;;;;;;;1999.90;999.90;;;;;;;;;;5073828;28;20135;-91
2024/01/14 12:20:27;;;;;;;1999.90;999.90;;;;;;;;;;5080635;28;20408;-89
2024/01/14 12:22:58;;;;;;;1999.90;999.90;;;;;;;;;;5069179;28;20049;-89
2024/01/14 12:25:25;;;;;;;1999.90;999.90;;;;;;;;;;5077519;28;20048;-90
2024/01/14 12:27:51;;;;;;;1999.90;999.90;;;;;;;;;;5079757;28;20296;-90
2024/01/14 12:30:30;;;;;;;1999.90;999.90;;;;;;;;;;5073726;28;20120;-90
2024/01/14 12:32:57;;;;;;;1999.90;999.90;;;;;;;;;;5068328;28;20059;-91
2024/01/14 12:35:35;;;;;;;1999.90;999.90;;;;;;;;;;5080622;28;20485;-88
2024/01/14 12:38:02;;;;;;;1999.90;999.90;;;;;;;;;;5076955;28;20048;-88
2024/01/14 12:40:30;;;;;;;1999.90;999.90;;;;;;;;;;5079162;28;20309;-88
2024/01/14 12:42:56;;;;;;;1999.90;999.90;;;;;;;;;;5067101;28;20090;-89
2024/01/14 12:45:23;;;;;;;1999.90;999.90;;;;;;;;;;5077581;28;20056;-89
2024/01/14 12:47:59;;;;;;;1999.90;999.90;;;;;;;;;;5075176;28;20682;-91
2024/01/14 12:50:27;;;;;;;1999.90;999.90;;;;;;;;;;5070547;28;20060;-91
2024/01/14 12:52:58;;;;;;;1999.90;999.90;;;;;;;;;;5079619;28;20094;-92
2024/01/14 12:55:29;;;;;;;1999.90;999.90;;;;;;;;;;5053958;28;20051;-91
2024/01/14 12:57:56;;;;;;;1999.90;999.90;;;;;;;;;;5079679;28;20098;-92
2024/01/14 13:00:23;;;;;;;1999.90;999.90;;;;;;;;;;5080505;28;20044;-92
2024/01/14 13:02:49;;;;;;;1999.90;999.90;;;;;;;;;;5080130;28;20044;-93
2024/01/14 13:05:16;;;;;;;1999.90;999.90;;;;;;;;;;5071232;28;20523;-89
2024/01/14 13:07:42;;;;;;;1999.90;999.90;;;;;;;;;;5076840;28;20051;-90
2024/01/14 13:10:10;;;;;;;1999.90;999.90;;;;;;;;;;5079867;28;20799;-89
2024/01/14 13:12:37;;;;;;;1999.90;999.90;;;;;;;;;;5077309;28;20059;-88
2024/01/14 13:15:04;;;;;;;1999.90;999.90;;;;;;;;;;5072816;28;20134;-89
2024/01/14 13:17:31;;;;;;;1999.90;999.90;;;;;;;;;;5080070;28;20077;-87
2024/01/14 13:20:16;;;;;;;1999.90;999.90;;;;;;;;;;5074062;28;20055;-89
2024/01/14 13:22:42;;;;;;;1999.90;999.90;;;;;;;;;;5077339;28;20413;-88
2024/01/14 13:25:10;;;;;;;1999.90;999.90;;;;;;;;;;5081887;28;20052;-90
2024/01/14 13:27:37;;;;;;;1999.90;999.90;;;;;;;;;;5080330;28;20131;-89
2024/01/14 13:30:07;;;;;;;1999.90;999.90;;;;;;;;;;5073141;28;20129;-89
2024/01/14 13:32:36;;;;;;;1999.90;999.90;;;;;;;;;;5070777;28;20049;-90
2024/01/14 13:35:09;;;;;;;1999.90;999.90;;;;;;;;;;5077563;28;20101;-90
2024/01/14 13:37:43;;;;;;;1999.90;999.90;;;;;;;;;;5077601;28;20143;-89
2024/01/14 13:40:14;;;;;;;1999.90;999.90;;;;;;;;;;5078376;28;20480;-89
2024/01/14 13:42:45;;;;;;;1999.90;999.90;;;;;;;;;;5056806;28;20049;-88
2024/01/14 13:45:14;;;;;;;1999.90;999.90;;;;;;;;;;5085016;28;20504;-89
2024/01/14 13:47:41;;;;;;;1999.90;999.90;;;;;;;;;;5072303;28;20064;-89
2024/01/14 13:50:08;;;;;;;1999.90;999.90;;;;;;;;;;5075020;28;20052;-89
2024/01/14 13:52:34;;;;;;;1999.90;999.90;;;;;;;;;;5071764;28;20044;-90
2024/01/14 13:55:01;;;;;;;1999.90;999.90;;;;;;;;;;5073016;28;20052;-90